Middlesex, Vermont
Current Conditions -  °F | °C
As of 7:51 AM on Tuesday 21 Oct 2014 (Local Time) from KMPV Reporting Station
Overcast Overcast  
Wind Chill: 41°   Ceiling: 5000
Heat Index: 41°   Visibility: 10mi
Dew Point: 39°   Wind: 0mph
Humidity: 93%   Direction: NA
Pressure: 30"   Gusts: NA
Location:  44.2861°N, 72.6004°W
Report Text: KMPV 211151Z AUTO 00000KT 10SM BKN050 OVC060 05/04 A3000 RMK AO2 RAE43 SLP169 P0001 60013 70013 T00500039 10050 20039 53006
Loading
Personal Weather Stations






























Interactive Weather Map
Tropical Storm Tracking
New forecast layout! Learn more

10-Day Weather Forecast

Advertisements
Track Severe Weather on mobile